Agua Boa, Brazil
Current Conditions -  °F | °C
As of 11:00 AM on Sunday 23 Nov 2014 (Local Time) from SBBW Reporting Station
Broken Clouds Broken Clouds  
Wind Chill: 82°   Ceiling: 2000
Heat Index: 87°   Visibility: 6mi
Dew Point: 72°   Wind: 5mph
Humidity: 70%   Direction: 220°SW
Pressure: 29.97"   Gusts: NA
Location:  14.05°S, 52.16°W
Report Text: SBBW 231400Z 22004KT 9999 BKN020 BKN080 28/22 Q1015
Loading
Personal Weather Stations






























Interactive Weather Map New forecast layout! Learn more

10-Day Weather Forecast

Advertisements
Track Severe Weather on mobile